Time;durP1;ratioP1;P1;durP2;ratioP2;P2;SDS_P1;SDS_P2;PMS_P1;PMS_P2;Temp;Humidity;BMP_temperature;BMP_pressure;BME280_temperature;BME280_humidity;BME280_pressure;Samples;Min_cycle;Max_cycle;Signal;HPM_P1;HPM_P2
2022/03/21 00:00:47;;;;;;;;;65.50;49.75;;;;;8.78;56.85;101803.94;4961180;28;45445;-71
2022/03/21 00:03:15;;;;;;;;;61.75;47.25;;;;;8.77;56.63;101808.31;4956246;28;45400;-69
2022/03/21 00:05:41;;;;;;;;;65.50;51.25;;;;;8.74;56.79;101808.34;4956891;28;45342;-69
2022/03/21 00:08:07;;;;;;;;;62.50;48.50;;;;;8.73;56.43;101808.38;4958017;28;45336;-69
2022/03/21 00:10:34;;;;;;;;;63.25;50.00;;;;;8.72;57.44;101810.13;4957443;28;45802;-69
2022/03/21 00:13:00;;;;;;;;;63.00;47.00;;;;;8.70;56.55;101808.44;4948673;28;47021;-70
2022/03/21 00:15:27;;;;;;;;;61.50;48.50;;;;;8.68;57.38;101808.44;4941952;28;45625;-70
2022/03/21 00:17:52;;;;;;;;;63.00;49.00;;;;;8.66;57.45;101804.09;4973279;28;45403;-71
2022/03/21 00:20:19;;;;;;;;;66.00;48.00;;;;;8.66;57.42;101809.34;4958585;28;45691;-71
2022/03/21 00:22:45;;;;;;;;;66.25;49.75;;;;;8.63;57.77;101812.88;4960452;28;46533;-70
2022/03/21 00:25:10;;;;;;;;;60.00;48.75;;;;;8.60;57.45;101805.03;4958623;28;45448;-69
2022/03/21 00:27:37;;;;;;;;;63.00;46.50;;;;;8.59;57.48;101813.78;4957751;28;45321;-69
2022/03/21 00:30:06;;;;;;;;;60.50;47.50;;;;;8.57;57.79;101803.34;4957369;28;45318;-69
2022/03/21 00:32:31;;;;;;;;;55.00;44.50;;;;;8.55;57.42;101806.84;4956105;28;46509;-69
2022/03/21 00:34:57;;;;;;;;;67.75;51.00;;;;;8.54;58.13;101797.25;4957708;28;45325;-69
2022/03/21 00:37:23;;;;;;;;;67.00;51.00;;;;;8.52;57.69;101802.53;4957629;28;45551;-71
2022/03/21 00:39:51;;;;;;;;;62.25;48.50;;;;;8.49;57.70;101805.19;4959880;28;45335;-70
2022/03/21 00:42:16;;;;;;;;;63.00;49.75;;;;;8.46;57.79;101810.41;4948840;28;45503;-70
2022/03/21 00:44:42;;;;;;;;;63.00;47.75;;;;;8.48;58.27;101806.00;4942322;28;45207;-71
2022/03/21 00:47:07;;;;;;;;;61.50;49.75;;;;;8.45;58.47;101813.91;4942797;28;45686;-70
2022/03/21 00:49:32;;;;;;;;;61.75;48.75;;;;;8.43;58.01;101808.69;4941630;28;45581;-71
2022/03/21 00:51:58;;;;;;;;;63.00;47.75;;;;;8.42;58.29;101809.59;4955566;28;45393;-72
2022/03/21 00:54:23;;;;;;;;;69.00;50.00;;;;;8.39;58.48;101806.13;4963566;28;45303;-71
2022/03/21 00:56:48;;;;;;;;;64.75;49.75;;;;;8.41;58.64;101813.09;4942834;28;45231;-71
2022/03/21 00:59:15;;;;;;;;;63.00;46.25;;;;;8.39;58.15;101806.13;4943421;28;45572;-70
2022/03/21 01:01:40;;;;;;;;;61.00;47.50;;;;;8.38;58.57;101807.88;4952225;28;45353;-70
2022/03/21 01:04:05;;;;;;;;;58.50;45.50;;;;;8.38;58.69;101807.00;4962194;28;46424;-71
2022/03/21 01:06:31;;;;;;;;;66.75;52.25;;;;;8.32;59.17;101802.72;4974766;28;45405;-71
2022/03/21 01:08:56;;;;;;;;;62.75;48.00;;;;;8.34;58.69;101806.19;4960923;28;45448;-71
2022/03/21 01:11:22;;;;;;;;;65.75;53.00;;;;;8.29;58.48;101800.97;4953080;28;45478;-71
2022/03/21 01:13:48;;;;;;;;;63.00;48.25;;;;;8.22;59.12;101788.81;4941392;28;45445;-70
2022/03/21 01:16:15;;;;;;;;;63.25;48.75;;;;;8.29;58.93;101805.38;4951760;28;45302;-70
2022/03/21 01:18:41;;;;;;;;;64.25;50.50;;;;;8.28;59.20;101804.47;4961840;28;45401;-70
2022/03/21 01:21:06;;;;;;;;;66.00;49.75;;;;;8.27;59.26;101808.00;4959116;28;46461;-71
2022/03/21 01:23:32;;;;;;;;;68.25;51.25;;;;;8.22;59.54;101801.94;4959931;28;45236;-70
2022/03/21 01:25:57;;;;;;;;;66.25;50.25;;;;;8.22;59.14;101801.94;4960283;28;45313;-70
2022/03/21 01:28:22;;;;;;;;;65.00;49.00;;;;;8.21;59.73;101801.97;4960878;28;45570;-70
2022/03/21 01:30:48;;;;;;;;;66.00;49.25;;;;;8.23;59.22;101803.66;4951767;28;49149;-70
2022/03/21 01:33:13;;;;;;;;;64.50;49.00;;;;;8.27;59.21;101802.75;4940730;28;45204;-71
2022/03/21 01:35:38;;;;;;;;;63.50;50.00;;;;;8.31;59.76;101801.81;4940217;28;45271;-71
2022/03/21 01:38:04;;;;;;;;;61.25;47.25;;;;;8.34;60.08;101809.66;4953799;28;45254;-70
2022/03/21 01:40:29;;;;;;;;;58.00;47.33;;;;;8.38;59.97;101815.75;4955369;28;45241;-70
2022/03/21 01:42:54;;;;;;;;;65.00;48.75;;;;;8.43;59.34;101807.81;4940643;28;45251;-70
2022/03/21 01:45:20;;;;;;;;;61.50;46.00;;;;;8.48;59.65;101803.38;4940308;28;45283;-71
2022/03/21 01:47:46;;;;;;;;;63.25;50.75;;;;;8.54;59.67;101802.50;4940568;28;45254;-70
2022/03/21 01:50:12;;;;;;;;;64.25;49.00;;;;;8.58;59.37;101799.81;4941863;28;47048;-72
2022/03/21 01:52:38;;;;;;;;;60.25;48.25;;;;;8.58;59.71;101797.19;4942612;28;45339;-70
2022/03/21 01:57:51;;;;;;;;;67.75;49.75;;;;;8.80;59.39;101806.53;4939232;28;45445;-69
2022/03/21 02:00:17;;;;;;;;;62.00;49.00;;;;;8.83;59.63;101810.00;4941260;28;46020;-70
2022/03/21 02:02:45;;;;;;;;;63.00;48.25;;;;;8.86;59.83;101804.72;4958887;28;45466;-70
2022/03/21 02:05:11;;;;;;;;;61.00;49.00;;;;;8.88;59.48;101800.31;4958360;28;45155;-70
2022/03/21 02:07:36;;;;;;;;;63.00;48.25;;;;;8.86;59.74;101796.84;4956199;28;45675;-70
2022/03/21 02:10:06;;;;;;;;;60.00;47.50;;;;;8.93;59.88;101807.25;4939591;28;46062;-70
2022/03/21 02:12:33;;;;;;;;;62.50;50.25;;;;;8.94;59.72;101806.38;4922325;28;45272;-70
2022/03/21 02:14:59;;;;;;;;;64.75;49.25;;;;;8.93;59.36;101809.88;4922445;28;45269;-70
2022/03/21 02:17:25;;;;;;;;;63.75;49.00;;;;;8.88;59.44;101804.69;4922362;28;45204;-71
2022/03/21 02:19:51;;;;;;;;;64.00;48.25;;;;;8.84;59.84;101803.88;4950172;28;45660;-69
2022/03/21 02:22:31;;;;;;;;;64.25;50.00;;;;;8.82;59.70;101799.50;4942957;28;45430;-71
2022/03/21 02:25:21;;;;;;;;;62.25;46.25;;;;;8.84;59.84;101801.25;4940980;28;45578;-69
2022/03/21 02:27:49;;;;;;;;;60.25;47.00;;;;;8.85;60.02;101799.47;4941057;28;45354;-69
2022/03/21 02:30:15;;;;;;;;;64.75;49.75;;;;;8.86;60.27;101790.72;4941535;28;45510;-69
2022/03/21 02:32:41;;;;;;;;;61.50;48.00;;;;;8.87;59.95;101795.94;4957706;28;45421;-69
2022/03/21 02:35:09;;;;;;;;;61.75;48.25;;;;;8.87;60.18;101788.09;4957499;28;45314;-69
2022/03/21 02:37:36;;;;;;;;;63.75;48.25;;;;;8.86;59.73;101785.47;4961420;28;45227;-69
2022/03/21 02:40:01;;;;;;;;;65.00;48.75;;;;;8.82;60.07;101792.53;4967645;28;46255;-71
2022/03/21 02:42:27;;;;;;;;;66.75;47.75;;;;;8.77;60.13;101787.31;4968861;28;45303;-71
2022/03/21 02:44:52;;;;;;;;;58.25;46.50;;;;;8.74;60.41;101786.50;4953943;28;45434;-70
2022/03/21 02:47:17;;;;;;;;;61.25;47.00;;;;;8.71;60.03;101776.91;4942513;28;45565;-71
2022/03/21 02:49:43;;;;;;;;;63.25;48.75;;;;;8.68;60.68;101776.09;4938961;28;45287;-71
2022/03/21 02:52:12;;;;;;;;;64.25;48.00;;;;;8.69;60.39;101783.09;4939097;28;45457;-70
2022/03/21 02:54:37;;;;;;;;;57.25;45.75;;;;;8.68;60.58;101773.47;4938837;28;45399;-70
2022/03/21 02:57:03;;;;;;;;;62.75;48.75;;;;;8.66;60.71;101772.63;4938563;28;45377;-70
2022/03/21 02:59:29;;;;;;;;;64.75;48.75;;;;;8.69;60.54;101783.09;4939574;28;46593;-68
2022/03/21 03:01:54;;;;;;;;;63.25;46.50;;;;;8.70;60.60;101769.94;4941224;28;45349;-69
2022/03/21 03:04:23;;;;;;;;;62.75;46.75;;;;;8.73;60.84;101775.13;4938685;28;45360;-69
2022/03/21 03:06:49;;;;;;;;;63.50;48.50;;;;;8.77;60.74;101782.06;4939610;28;45553;-69
2022/03/21 03:09:14;;;;;;;;;66.00;50.25;;;;;8.80;60.95;101786.44;4947633;28;46210;-71
2022/03/21 03:11:40;;;;;;;;;62.75;48.00;;;;;8.86;60.90;101785.47;4943712;28;45291;-69
2022/03/21 03:14:06;;;;;;;;;63.00;49.50;;;;;8.89;61.21;101785.41;4937858;28;45221;-69
2022/03/21 03:16:31;;;;;;;;;62.25;49.75;;;;;8.94;61.27;101783.59;4938466;28;45908;-69
2022/03/21 03:18:57;;;;;;;;;64.75;47.25;;;;;8.97;60.92;101786.19;4937662;28;45685;-69
2022/03/21 03:21:25;;;;;;;;;64.25;50.25;;;;;9.00;60.99;101783.50;4962965;28;45460;-70
2022/03/21 03:23:52;;;;;;;;;59.00;46.25;;;;;8.99;60.78;101783.53;4959021;28;45337;-72
2022/03/21 03:26:18;;;;;;;;;67.50;51.00;;;;;9.03;61.18;101788.75;4959287;28;45521;-70
2022/03/21 03:28:44;;;;;;;;;64.25;50.25;;;;;9.06;61.02;101787.81;4957624;28;46375;-70
2022/03/21 03:31:12;;;;;;;;;68.50;50.25;;;;;9.09;60.73;101790.41;4963470;28;45533;-70
2022/03/21 03:33:38;;;;;;;;;62.25;48.50;;;;;9.10;60.90;101784.25;4942571;28;45330;-70
2022/03/21 03:36:04;;;;;;;;;64.25;50.75;;;;;9.11;60.99;101788.63;4957506;28;45517;-70
2022/03/21 03:38:29;;;;;;;;;64.75;48.50;;;;;9.11;60.88;101786.00;4957477;28;46515;-70
2022/03/21 03:40:55;;;;;;;;;68.75;50.50;;;;;9.11;60.83;101793.88;4951157;28;45250;-71
2022/03/21 03:43:20;;;;;;;;;63.00;49.50;;;;;9.12;61.67;101794.75;4957030;28;45504;-69
2022/03/21 03:45:49;;;;;;;;;63.50;50.25;;;;;9.14;60.84;101800.84;4948949;28;45540;-70
2022/03/21 03:48:14;;;;;;;;;65.25;50.25;;;;;9.16;61.12;101796.44;4937924;28;46468;-70
2022/03/21 03:50:41;;;;;;;;;67.00;50.25;;;;;9.19;61.09;101799.03;4939357;28;45689;-72
2022/03/21 03:53:07;;;;;;;;;62.50;49.75;;;;;9.22;60.99;101798.97;4937204;28;45306;-70
2022/03/21 03:55:33;;;;;;;;;63.75;49.00;;;;;9.22;60.81;101798.97;4937517;28;45271;-70
2022/03/21 03:57:58;;;;;;;;;61.50;46.00;;;;;9.13;60.65;101792.09;4957818;28;46903;-70
2022/03/21 04:00:24;;;;;;;;;63.00;49.00;;;;;9.24;60.67;101802.44;4956415;28;45294;-71
2022/03/21 04:05:34;;;;;;;;;62.00;47.50;;;;;9.30;60.79;101806.72;4956714;28;45259;-71
2022/03/21 04:07:59;;;;;;;;;62.50;48.75;;;;;9.28;60.85;101809.38;4952159;28;46919;-71
2022/03/21 04:10:25;;;;;;;;;67.75;50.00;;;;;9.28;60.60;101798.88;4940644;28;45600;-70
2022/03/21 04:12:51;;;;;;;;;63.25;49.00;;;;;9.28;60.53;101798.00;4940395;28;45314;-70
2022/03/21 04:15:18;;;;;;;;;66.50;50.00;;;;;9.32;60.81;101805.81;4938400;28;45452;-70
2022/03/21 04:17:44;;;;;;;;;62.75;48.25;;;;;9.34;61.01;101804.03;4937416;28;45534;-70
2022/03/21 04:20:10;;;;;;;;;66.75;51.00;;;;;9.37;61.36;101810.13;4953208;28;45464;-69
2022/03/21 04:22:36;;;;;;;;;62.75;48.50;;;;;9.37;60.94;101810.97;4961210;28;45291;-70
2022/03/21 04:25:04;;;;;;;;;62.25;46.00;;;;;9.38;60.92;101814.50;4959581;28;45441;-69
2022/03/21 04:27:29;;;;;;;;;60.75;46.00;;;;;9.32;61.12;101807.56;4957146;28;46451;-70
2022/03/21 04:29:55;;;;;;;;;58.50;47.75;;;;;9.40;60.89;101816.19;4942560;28;45341;-70
2022/03/21 04:32:20;;;;;;;;;62.50;47.00;;;;;9.45;60.95;101818.75;4939007;28;45248;-70
2022/03/21 04:34:46;;;;;;;;;64.00;48.25;;;;;9.27;60.98;101788.38;4957154;28;45317;-71
2022/03/21 04:37:11;;;;;;;;;61.00;47.75;;;;;9.51;60.96;101826.53;4957984;28;45459;-69
2022/03/21 04:39:36;;;;;;;;;62.25;48.75;;;;;9.55;60.82;101832.63;4947208;28;45411;-70
2022/03/21 04:42:02;;;;;;;;;67.75;50.00;;;;;9.58;60.83;101835.19;4937853;28;45483;-69
2022/03/21 04:44:28;;;;;;;;;64.00;48.00;;;;;9.59;61.03;101834.31;4937483;28;45623;-70
2022/03/21 04:46:53;;;;;;;;;64.25;49.75;;;;;9.59;61.03;101839.56;4938801;28;46123;-70
2022/03/21 04:49:18;;;;;;;;;63.25;49.50;;;;;9.58;61.11;101836.06;4939990;28;45334;-69
2022/03/21 04:51:44;;;;;;;;;61.50;46.75;;;;;9.60;61.27;101836.91;4940417;28;45380;-70
2022/03/21 04:54:09;;;;;;;;;59.75;45.75;;;;;9.62;61.04;101847.41;4939972;28;45462;-70
2022/03/21 04:56:35;;;;;;;;;60.75;47.50;;;;;9.64;60.99;101848.25;4938580;28;45458;-71
2022/03/21 04:59:00;;;;;;;;;62.50;47.50;;;;;9.64;61.00;101840.34;4945630;28;44739;-70
2022/03/21 05:01:25;;;;;;;;;62.75;47.25;;;;;9.66;61.10;101841.19;4956622;28;45789;-69
2022/03/21 05:03:51;;;;;;;;;61.75;47.75;;;;;9.70;61.03;101842.88;4958465;28;45337;-69
2022/03/21 05:06:17;;;;;;;;;62.25;49.00;;;;;9.73;61.14;101847.22;4959308;28;45438;-69
2022/03/21 05:08:43;;;;;;;;;62.25;49.75;;;;;9.72;61.18;101846.34;4947766;28;45672;-71
2022/03/21 05:11:08;;;;;;;;;61.25;47.25;;;;;9.70;61.01;101842.00;4936139;28;45352;-68
2022/03/21 05:13:34;;;;;;;;;56.75;45.25;;;;;9.71;61.19;101838.47;4955849;28;45752;-69
2022/03/21 05:15:59;;;;;;;;;64.25;47.50;;;;;9.74;61.30;101841.06;4953579;28;47840;-69
2022/03/21 05:18:24;;;;;;;;;62.00;48.50;;;;;9.68;61.34;101831.53;4950905;28;45293;-69
2022/03/21 05:20:50;;;;;;;;;62.50;48.25;;;;;9.72;61.35;101846.34;4937951;28;45171;-70
2022/03/21 05:31:27;;;;;;;;;60.00;46.75;;;;;9.76;61.98;101845.41;4958817;28;45485;-70
2022/03/21 05:36:37;;;;;;;;;61.25;46.00;;;;;9.80;61.89;101854.09;4957377;28;45791;-69
2022/03/21 05:39:03;;;;;;;;;64.50;48.00;;;;;9.80;61.64;101856.72;4949439;28;45357;-69
2022/03/21 05:41:28;;;;;;;;;59.50;45.75;;;;;9.77;61.62;101857.66;4959669;28;45426;-72
2022/03/21 05:43:54;;;;;;;;;58.75;45.75;;;;;9.72;62.11;101861.25;4960563;28;45314;-69
2022/03/21 05:46:20;;;;;;;;;54.00;42.75;;;;;9.70;61.85;101865.66;4960724;28;45239;-71
2022/03/21 05:48:54;;;;;;;;;64.50;47.75;;;;;9.61;62.00;101853.53;4953274;28;45409;-70
2022/03/21 05:51:32;;;;;;;;;54.00;45.75;;;;;9.60;62.04;101862.31;4954293;28;45373;-68
2022/03/21 05:54:00;;;;;;;;;61.25;46.50;;;;;9.53;62.42;101858.00;4958893;28;45490;-69
2022/03/21 05:56:27;;;;;;;;;60.25;46.50;;;;;9.49;62.52;101862.47;4958621;28;46279;-70
2022/03/21 05:58:54;;;;;;;;;69.25;51.75;;;;;9.46;62.52;101873.03;4952823;28;45470;-70
2022/03/21 06:01:23;;;;;;;;;57.25;46.00;;;;;9.42;62.73;101871.31;4959642;28;45422;-71
2022/03/21 06:03:54;;;;;;;;;61.75;47.00;;;;;9.39;62.99;101871.38;4959593;28;45434;-72
2022/03/21 06:06:21;;;;;;;;;59.00;46.00;;;;;9.34;62.89;101881.94;4960187;28;46446;-69
2022/03/21 06:08:48;;;;;;;;;60.50;46.25;;;;;9.33;63.45;101880.19;4958998;28;45535;-69
2022/03/21 06:11:13;;;;;;;;;60.50;45.75;;;;;9.31;63.28;101887.22;4940967;28;45313;-70
2022/03/21 06:13:42;;;;;;;;;55.25;44.25;;;;;9.31;63.00;101897.72;4945532;28;45338;-70
2022/03/21 06:16:08;;;;;;;;;59.50;45.50;;;;;9.20;63.66;101872.50;4959130;28;46076;-69
2022/03/21 06:18:35;;;;;;;;;66.25;51.50;;;;;9.33;63.68;101891.59;4958993;28;45390;-69
2022/03/21 06:21:02;;;;;;;;;59.75;47.50;;;;;9.34;63.77;101897.69;4942047;28;45421;-71
2022/03/21 06:23:28;;;;;;;;;59.00;47.50;;;;;9.35;64.02;101896.78;4943362;28;45330;-70
2022/03/21 06:25:54;;;;;;;;;55.50;45.75;;;;;9.35;63.87;101896.78;4939544;28;46058;-69
2022/03/21 06:28:21;;;;;;;;;57.50;45.50;;;;;9.36;63.95;101911.66;4939331;28;45336;-69
2022/03/21 06:30:47;;;;;;;;;60.25;46.25;;;;;9.39;63.66;101909.00;4953262;28;45342;-69
2022/03/21 06:33:12;;;;;;;;;58.50;46.75;;;;;9.40;63.70;101915.13;4974780;28;45660;-69
2022/03/21 06:35:38;;;;;;;;;56.00;44.50;;;;;9.40;63.87;101913.34;4959055;28;45566;-68
2022/03/21 06:38:03;;;;;;;;;57.25;44.75;;;;;9.43;63.39;101925.59;4956125;28;45267;-69
2022/03/21 06:40:30;;;;;;;;;65.25;50.00;;;;;9.44;63.85;101920.31;4949851;28;45396;-69
2022/03/21 06:42:56;;;;;;;;;59.50;48.50;;;;;9.52;63.71;101924.56;4957921;28;45519;-68
2022/03/21 06:45:21;;;;;;;;;59.75;47.00;;;;;9.55;64.06;101927.19;4957206;28;45476;-69
2022/03/21 06:47:47;;;;;;;;;58.75;45.00;;;;;9.65;63.49;101934.91;4957569;28;45471;-73
2022/03/21 06:50:12;;;;;;;;;56.25;44.75;;;;;9.70;63.60;101931.34;4944975;28;45270;-68
2022/03/21 06:52:39;;;;;;;;;61.50;46.75;;;;;9.81;63.69;101941.69;4939284;28;45507;-70
2022/03/21 06:55:06;;;;;;;;;56.25;43.25;;;;;9.86;63.01;101947.75;4936724;28;46802;-66
2022/03/21 06:57:32;;;;;;;;;57.00;45.00;;;;;9.89;63.25;101951.19;4939531;28;45489;-68
2022/03/21 06:59:57;;;;;;;;;60.75;44.00;;;;;9.90;62.68;101939.78;4930773;28;45229;-66
2022/03/21 07:02:23;;;;;;;;;63.50;48.75;;;;;10.02;63.26;101946.63;4937582;28;45326;-67
2022/03/21 07:04:48;;;;;;;;;47.50;40.00;;;;;10.16;62.64;101959.56;4941833;28;45937;-76
2022/03/21 07:07:14;;;;;;;;;59.75;46.00;;;;;10.00;62.17;101915.97;4951828;28;45306;-65
2022/03/21 07:09:39;;;;;;;;;57.50;45.00;;;;;10.31;62.25;101949.66;4941814;28;45304;-72
2022/03/21 07:12:05;;;;;;;;;63.00;47.25;;;;;10.40;62.53;101954.81;4936827;28;45427;-60
2022/03/21 07:14:30;;;;;;;;;58.75;45.50;;;;;10.51;62.04;101963.38;4936634;28;46296;-69
2022/03/21 07:16:56;;;;;;;;;54.75;44.25;;;;;10.60;61.58;101964.97;4937024;28;45394;-66
2022/03/21 07:19:21;;;;;;;;;62.50;47.50;;;;;10.67;61.79;101960.47;4938106;28;45277;-59
2022/03/21 07:21:46;;;;;;;;;62.25;47.25;;;;;10.78;61.01;101962.91;4937527;28;45457;-68
2022/03/21 07:24:13;;;;;;;;;59.75;46.25;;;;;10.83;60.71;101958.41;4937059;28;46046;-71
2022/03/21 07:26:38;;;;;;;;;56.25;42.75;;;;;10.93;60.37;101951.19;4937125;28;45411;-72
2022/03/21 07:29:04;;;;;;;;;50.75;43.50;;;;;11.01;60.50;101948.41;4937833;28;45266;-53
2022/03/21 07:31:30;;;;;;;;;60.25;46.75;;;;;11.11;60.30;101944.69;4940323;28;45288;-71
2022/03/21 07:33:56;;;;;;;;;54.25;44.50;;;;;11.35;59.88;101956.50;4939907;28;45427;-71
2022/03/21 07:36:22;;;;;;;;;53.50;41.75;;;;;11.47;59.75;101960.63;4935923;28;45317;-66
2022/03/21 07:38:47;;;;;;;;;56.50;45.00;;;;;11.61;58.94;101959.44;4936909;28;45363;-67
2022/03/21 07:41:12;;;;;;;;;51.75;42.25;;;;;11.71;58.46;101963.63;4938024;28;45231;-66
2022/03/21 07:43:38;;;;;;;;;52.50;42.75;;;;;11.77;58.06;101967.88;4938264;28;46037;-71
2022/03/21 07:48:50;;;;;;;;;53.50;42.50;;;;;11.83;58.26;101963.34;4942303;28;45325;-73
2022/03/21 07:51:15;;;;;;;;;57.50;42.50;;;;;11.88;58.57;101972.91;4953331;28;45539;-60
2022/03/21 07:53:42;;;;;;;;;51.50;39.25;;;;;11.87;57.77;101958.00;4957041;28;46392;-72
2022/03/21 07:56:09;;;;;;;;;47.25;39.75;;;;;11.89;57.34;101967.59;4937101;28;45444;-68
2022/03/21 07:58:35;;;;;;;;;50.50;40.00;;;;;11.90;57.40;101957.94;4936710;28;45432;-67
2022/03/21 08:01:01;;;;;;;;;51.75;40.50;;;;;11.82;56.72;101951.06;4936998;28;45430;-64
2022/03/21 08:03:27;;;;;;;;;52.50;40.00;;;;;11.91;56.92;101970.22;4935810;28;45667;-71
2022/03/21 08:05:53;;;;;;;;;48.00;39.75;;;;;11.96;57.06;101969.19;4937326;28;45240;-68
2022/03/21 08:08:20;;;;;;;;;52.00;41.00;;;;;12.08;56.78;101978.63;4936982;28;45322;-56
2022/03/21 08:10:46;;;;;;;;;51.25;39.50;;;;;12.17;56.85;101974.03;4937620;28;45214;-68
2022/03/21 08:13:16;;;;;;;;;45.50;38.25;;;;;12.33;56.24;101980.63;4936309;28;46437;-65
2022/03/21 08:15:43;;;;;;;;;50.75;37.25;;;;;12.47;56.24;101976.78;4936534;28;45368;-62
2022/03/21 08:18:10;;;;;;;;;47.50;36.75;;;;;12.49;55.71;101967.06;4936557;28;45452;-65
2022/03/21 08:20:38;;;;;;;;;42.75;35.25;;;;;12.59;55.55;101973.81;4936450;28;45438;-63
2022/03/21 08:23:06;;;;;;;;;47.75;37.00;;;;;12.59;55.23;101981.75;4936374;28;46214;-71
2022/03/21 08:25:32;;;;;;;;;43.25;35.00;;;;;12.64;55.23;101981.63;4936371;28;45278;-75
2022/03/21 08:27:57;;;;;;;;;49.50;39.25;;;;;12.67;55.01;101981.56;4936347;28;45341;-68
2022/03/21 08:30:23;;;;;;;;;44.75;36.75;;;;;12.62;54.53;101971.09;4936569;28;45172;-70
2022/03/21 08:32:49;;;;;;;;;45.00;36.25;;;;;12.76;54.61;101980.44;4936040;28;45270;-69
2022/03/21 08:35:17;;;;;;;;;43.00;35.00;;;;;12.84;54.50;101986.38;4935328;28;45394;-75
2022/03/21 08:37:43;;;;;;;;;43.50;34.75;;;;;12.89;54.47;101987.13;4936637;28;45393;-67
2022/03/21 08:40:10;;;;;;;;;40.75;34.50;;;;;12.95;54.35;101994.00;4936604;28;45278;-76
2022/03/21 08:42:36;;;;;;;;;41.75;34.25;;;;;12.95;54.19;101986.97;4936468;28;47277;-74
2022/03/21 08:45:01;;;;;;;;;44.50;36.25;;;;;12.91;53.66;101987.94;4936702;28;45339;-72
2022/03/21 08:47:27;;;;;;;;;41.75;35.25;;;;;12.85;53.61;101980.19;4939378;28;45172;-72
2022/03/21 08:49:52;;;;;;;;;43.25;33.50;;;;;12.86;53.61;101981.94;4938914;28;45565;-70
2022/03/21 08:52:19;;;;;;;;;43.50;36.50;;;;;12.94;54.02;101987.88;4936316;28;45193;-72
2022/03/21 08:54:45;;;;;;;;;42.75;35.00;;;;;13.00;54.25;101989.44;4967294;28;45253;-73
2022/03/21 08:57:11;;;;;;;;;43.50;35.50;;;;;13.06;53.42;101988.44;4936243;28;45297;-74
2022/03/21 08:59:37;;;;;;;;;46.75;36.25;;;;;13.08;53.26;101989.25;4938846;28;45325;-64
2022/03/21 09:02:04;;;;;;;;;48.25;35.50;;;;;13.11;53.53;101989.16;4938794;28;46176;-71
2022/03/21 09:04:29;;;;;;;;;46.75;36.50;;;;;13.15;53.30;101986.38;4939002;28;45626;-71
2022/03/21 09:06:54;;;;;;;;;47.50;38.50;;;;;13.21;53.26;101982.72;4939608;28;45360;-74
2022/03/21 09:09:21;;;;;;;;;42.25;33.25;;;;;13.30;53.26;101986.88;4939548;28;45489;-65
2022/03/21 09:11:46;;;;;;;;;40.50;33.50;;;;;13.34;52.96;101980.59;4940405;28;45391;-72
2022/03/21 09:14:13;;;;;;;;;43.00;34.25;;;;;13.41;53.45;101982.13;4939156;28;45270;-75
2022/03/21 09:16:39;;;;;;;;;49.75;36.50;;;;;13.50;52.68;101985.44;4939520;28;45332;-74
2022/03/21 09:19:05;;;;;;;;;43.00;34.75;;;;;13.56;52.73;101974.69;4939614;28;45638;-74
2022/03/21 09:21:31;;;;;;;;;45.25;34.25;;;;;13.62;52.54;101971.84;4939322;28;45652;-71
2022/03/21 09:23:57;;;;;;;;;37.50;33.00;;;;;13.68;52.49;101976.94;4939100;28;45232;-71
2022/03/21 09:26:22;;;;;;;;;38.75;31.50;;;;;13.76;51.77;101975.84;4939285;28;45324;-74
2022/03/21 09:28:48;;;;;;;;;42.75;34.25;;;;;13.82;52.14;101967.72;4939671;28;45245;-72
2022/03/21 09:31:15;;;;;;;;;36.75;30.50;;;;;13.89;51.77;101971.91;4939815;28;45549;-73
2022/03/21 09:33:41;;;;;;;;;41.25;32.75;;;;;13.93;51.06;101976.19;4942097;28;45330;-66
2022/03/21 09:36:08;;;;;;;;;36.75;31.25;;;;;13.99;51.61;101972.47;4942755;28;45393;-71
2022/03/21 09:38:34;;;;;;;;;43.25;34.50;;;;;14.05;51.24;101977.56;4939384;28;45504;-75
2022/03/21 09:41:01;;;;;;;;;42.25;33.00;;;;;14.13;51.15;101977.31;4939294;28;46137;-73
2022/03/21 09:43:29;;;;;;;;;29.75;27.00;;;;;14.20;51.16;101976.19;4939883;28;45477;-72
2022/03/21 09:45:57;;;;;;;;;40.00;32.00;;;;;14.30;50.96;101974.09;4938802;28;45460;-76
2022/03/21 09:48:23;;;;;;;;;35.50;28.75;;;;;14.39;50.49;101957.06;4939422;28;45525;-75
2022/03/21 09:50:50;;;;;;;;;33.50;28.75;;;;;14.43;50.57;101967.47;4939204;28;46086;-72
2022/03/21 09:53:16;;;;;;;;;39.00;29.75;;;;;14.52;49.97;101961.00;4938990;28;45355;-73
2022/03/21 09:55:43;;;;;;;;;30.00;28.50;;;;;14.61;50.02;101958.03;4938822;28;45445;-72
2022/03/21 09:58:11;;;;;;;;;34.75;29.75;;;;;14.68;49.91;101952.53;4940618;28;45417;-73
2022/03/21 10:00:42;;;;;;;;;32.75;29.00;;;;;14.75;49.72;101954.91;4940083;28;45432;-74
2022/03/21 10:03:08;;;;;;;;;34.25;30.75;;;;;14.86;49.61;101957.19;4941740;28;45359;-71
2022/03/21 10:05:42;;;;;;;;;33.75;29.75;;;;;14.97;49.53;101959.47;4938383;28;45358;-69
2022/03/21 10:08:20;;;;;;;;;30.50;30.25;;;;;15.08;49.28;101945.78;4939598;28;45430;-72
2022/03/21 10:10:51;;;;;;;;;24.75;24.75;;;;;15.21;49.23;101953.28;4937592;28;45433;-75
2022/03/21 10:13:18;;;;;;;;;27.75;25.00;;;;;15.32;48.60;101948.44;4938209;28;45497;-73
2022/03/21 10:15:44;;;;;;;;;27.00;25.25;;;;;15.39;48.63;101951.72;4938219;28;45394;-72
2022/03/21 10:18:11;;;;;;;;;33.50;31.25;;;;;15.48;48.11;101951.38;4937507;28;45440;-73
2022/03/21 10:20:38;;;;;;;;;31.25;25.75;;;;;15.54;48.15;101955.59;4939245;28;45280;-67
2022/03/21 10:23:24;;;;;;;;;24.75;23.00;;;;;15.57;47.84;101943.06;4939003;28;45376;-74
2022/03/21 10:25:50;;;;;;;;;26.50;25.00;;;;;15.62;47.51;101941.06;4938625;28;45275;-74
2022/03/21 10:28:36;;;;;;;;;25.00;21.75;;;;;15.76;47.42;101948.50;4938084;28;45233;-76
2022/03/21 10:31:04;;;;;;;;;23.25;21.75;;;;;15.81;47.72;101942.13;4938966;28;45417;-71
2022/03/21 10:33:29;;;;;;;;;21.00;20.25;;;;;15.89;47.53;101942.72;4938994;28;45433;-74
2022/03/21 10:35:55;;;;;;;;;28.25;23.00;;;;;15.99;47.36;101940.56;4938065;28;45335;-69
2022/03/21 10:38:35;;;;;;;;;25.25;22.00;;;;;16.10;47.38;101940.09;4940645;28;45320;-72
2022/03/21 10:41:08;;;;;;;;;27.00;22.25;;;;;16.18;46.76;101936.22;4940653;28;46377;-74
2022/03/21 10:43:33;;;;;;;;;24.00;22.75;;;;;16.27;46.62;101932.28;4940562;28;45302;-71
2022/03/21 10:45:59;;;;;;;;;25.00;24.00;;;;;16.38;46.62;101930.97;4938476;28;45794;-74
2022/03/21 10:48:26;;;;;;;;;23.75;19.50;;;;;16.48;46.43;101930.50;4938547;28;45603;-67
2022/03/21 10:50:54;;;;;;;;;18.00;14.25;;;;;16.53;46.04;101927.66;4938064;28;45379;-69
2022/03/21 10:53:25;;;;;;;;;16.25;14.00;;;;;16.64;46.15;101935.13;4968813;28;45433;-73
2022/03/21 10:56:04;;;;;;;;;15.00;13.25;;;;;16.70;45.95;101926.03;4938494;28;45398;-72
2022/03/21 10:58:40;;;;;;;;;22.25;18.00;;;;;16.80;45.81;101933.53;4968499;28;45445;-71
2022/03/21 11:01:32;;;;;;;;;19.33;17.33;;;;;16.91;45.50;101930.38;4937781;28;45572;-71
2022/03/21 11:04:00;;;;;;;;;16.75;15.50;;;;;17.02;45.25;101929.06;4937816;28;45375;-71
2022/03/21 11:06:29;;;;;;;;;15.50;14.50;;;;;17.12;45.05;101925.03;4937763;28;45322;-63
2022/03/21 11:08:55;;;;;;;;;18.00;15.50;;;;;17.20;44.77;101930.03;4938482;28;45247;-73
2022/03/21 11:11:21;;;;;;;;;21.00;21.00;;;;;17.28;44.82;101916.34;4936368;28;46081;-61
2022/03/21 11:13:49;;;;;;;;;16.25;16.25;;;;;17.37;44.65;101914.13;4937645;28;45709;-71
2022/03/21 11:16:18;;;;;;;;;17.00;16.75;;;;;17.44;44.33;101913.84;4938613;28;45293;-69
2022/03/21 11:18:48;;;;;;;;;31.25;28.75;;;;;17.50;44.41;101908.22;4937868;28;45544;-68
2022/03/21 11:21:14;;;;;;;;;18.25;14.50;;;;;17.61;44.17;101905.03;4937212;28;45563;-71
2022/03/21 11:23:40;;;;;;;;;28.25;23.25;;;;;17.68;44.22;101901.16;4937295;28;45342;-71
2022/03/21 11:26:31;;;;;;;;;26.75;21.00;;;;;17.72;43.82;101888.53;4936092;28;45421;-71
2022/03/21 11:29:09;;;;;;;;;21.00;18.00;;;;;17.83;43.67;101904.81;4937940;28;45241;-67
2022/03/21 11:31:51;;;;;;;;;21.50;19.00;;;;;17.85;43.35;101894.13;4936379;28;47103;-72